Time;durP1;ratioP1;P1;durP2;ratioP2;P2;SDS_P1;SDS_P2;PMS_P1;PMS_P2;Temp;Humidity;BMP_temperature;BMP_pressure;BME280_temperature;BME280_humidity;BME280_pressure;Samples;Min_cycle;Max_cycle;Signal;HPM_P1;HPM_P2
2020/12/07 00:00:26;;;;;;;21.35;9.28;;;;;;;-7.19;86.96;100936.98;1759684;81;21052;-76
2020/12/07 00:02:53;;;;;;;22.25;9.90;;;;;;;-7.20;86.89;100941.48;1733320;81;20965;-76
2020/12/07 00:05:21;;;;;;;26.50;9.98;;;;;;;-7.22;86.94;100952.82;1728032;83;20937;-76
2020/12/07 00:07:49;;;;;;;24.45;10.13;;;;;;;-7.23;87.20;100944.98;1728037;83;21008;-75
2020/12/07 00:10:17;;;;;;;24.85;9.70;;;;;;;-7.25;87.09;100946.48;1727897;82;21312;-76
2020/12/07 00:12:46;;;;;;;28.10;9.25;;;;;;;-7.27;86.95;100944.98;1727959;83;21000;-76
2020/12/07 00:15:13;;;;;;;25.02;9.93;;;;;;;-7.30;87.16;100951.48;1728033;83;20897;-73
2020/12/07 00:17:41;;;;;;;25.57;9.95;;;;;;;-7.31;87.44;100939.14;1728014;83;21077;-73
2020/12/07 00:20:10;;;;;;;20.52;9.68;;;;;;;-7.34;87.11;100948.31;1728011;83;20941;-73
2020/12/07 00:22:38;;;;;;;22.17;8.95;;;;;;;-7.38;87.16;100941.63;1728036;83;21205;-73
2020/12/07 00:25:05;;;;;;;25.85;9.35;;;;;;;-7.41;87.22;100943.80;1731375;81;21205;-74
2020/12/07 00:27:35;;;;;;;24.80;9.80;;;;;;;-7.46;86.93;100934.95;1728005;83;21098;-73
2020/12/07 00:30:05;;;;;;;24.67;9.13;;;;;;;-7.50;86.95;100928.28;1727996;83;20938;-74
2020/12/07 00:32:34;;;;;;;23.50;9.45;;;;;;;-7.52;87.39;100928.14;1728059;83;20945;-74
2020/12/07 00:35:01;;;;;;;25.60;10.30;;;;;;;-7.53;87.69;100923.31;1703187;83;21956;-74
2020/12/07 00:37:29;;;;;;;27.10;10.88;;;;;;;-7.59;87.11;100925.30;1728437;83;21143;-74
2020/12/07 00:39:58;;;;;;;28.50;10.72;;;;;;;-7.61;87.15;100926.46;1728157;83;21009;-74
2020/12/07 00:42:26;;;;;;;25.43;11.50;;;;;;;-7.64;87.54;100922.79;1728251;83;21167;-74
2020/12/07 00:44:53;;;;;;;22.35;8.35;;;;;;;-7.68;87.33;100916.95;1728056;81;21490;-74
2020/12/07 00:47:21;;;;;;;23.92;10.45;;;;;;;-7.70;87.27;100916.28;1727979;83;21214;-74
2020/12/07 00:49:48;;;;;;;26.60;10.25;;;;;;;-7.74;87.24;100919.77;1727972;83;21119;-74
2020/12/07 00:52:15;;;;;;;30.12;9.38;;;;;;;-7.76;87.49;100909.77;1703121;83;21174;-75
2020/12/07 00:54:45;;;;;;;25.92;10.10;;;;;;;-7.78;87.35;100909.59;1728016;83;20953;-74
2020/12/07 00:57:13;;;;;;;27.13;10.10;;;;;;;-7.82;87.28;100907.76;1727999;81;20937;-75
2020/12/07 00:59:41;;;;;;;22.90;9.58;;;;;;;-7.84;87.73;100908.92;1728321;81;21091;-75
2020/12/07 01:02:09;;;;;;;20.62;8.60;;;;;;;-7.86;87.57;100911.75;1759809;81;21614;-74
2020/12/07 01:04:37;;;;;;;27.85;10.08;;;;;;;-7.89;87.25;100913.91;1759728;81;21130;-74
2020/12/07 01:07:07;;;;;;;30.85;10.15;;;;;;;-7.93;87.36;100913.89;1759729;81;21588;-74
2020/12/07 01:09:36;;;;;;;25.30;9.90;;;;;;;-7.96;87.41;100904.89;1759596;80;21181;-74
2020/12/07 01:12:05;;;;;;;23.20;9.68;;;;;;;-8.02;87.28;100902.38;1759819;80;21389;-73
2020/12/07 01:14:49;;;;;;;24.72;9.90;;;;;;;-8.02;87.29;100895.71;1910537;74;22690;-74
2020/12/07 01:17:15;;;;;;;23.85;9.43;;;;;;;-8.08;87.50;100912.34;1850140;77;20908;-75
2020/12/07 01:19:45;;;;;;;25.70;9.75;;;;;;;-8.09;87.64;100912.88;1850101;77;21548;-76
2020/12/07 01:22:14;;;;;;;22.55;9.53;;;;;;;-8.13;87.46;100901.37;1850056;77;20931;-76
2020/12/07 01:24:44;;;;;;;23.83;8.78;;;;;;;-8.15;87.42;100908.19;1850113;77;21517;-76
2020/12/07 01:27:12;;;;;;;26.12;8.70;;;;;;;-8.14;88.41;100904.53;1850001;77;21537;-77
2020/12/07 01:29:40;;;;;;;21.42;8.55;;;;;;;-8.17;87.78;100906.19;1842353;77;20987;-74
2020/12/07 01:32:07;;;;;;;23.98;8.58;;;;;;;-8.22;87.35;100898.34;1816630;79;21799;-75
2020/12/07 01:34:35;;;;;;;25.70;8.28;;;;;;;-8.26;87.70;100903.66;1816561;79;20936;-75
2020/12/07 01:37:04;;;;;;;21.40;8.03;;;;;;;-8.29;87.61;100906.14;1816661;79;20952;-75
2020/12/07 01:39:34;;;;;;;24.52;9.08;;;;;;;-8.33;87.31;100906.16;1816084;79;20932;-75
2020/12/07 01:42:03;;;;;;;25.05;9.45;;;;;;;-8.38;87.20;100906.63;1816651;79;20964;-74
2020/12/07 01:44:33;;;;;;;16.87;7.55;;;;;;;-8.40;87.22;100911.28;1816594;79;21770;-75
2020/12/07 01:47:01;;;;;;;27.70;9.88;;;;;;;-8.46;87.09;100909.76;1816578;79;21007;-74
2020/12/07 01:49:29;;;;;;;20.52;8.35;;;;;;;-8.49;87.15;100904.75;1787791;79;20999;-74
2020/12/07 01:51:57;;;;;;;24.65;9.60;;;;;;;-8.51;87.47;100910.73;1816691;79;21466;-74
2020/12/07 01:54:25;;;;;;;25.43;9.45;;;;;;;-8.52;87.55;100911.72;1816568;79;20911;-74
2020/12/07 01:56:52;;;;;;;19.25;7.55;;;;;;;-8.55;87.26;100922.69;1816566;79;21800;-74
2020/12/07 01:59:20;;;;;;;22.82;8.58;;;;;;;-8.60;87.21;100932.98;1762394;79;21027;-75
2020/12/07 02:01:48;;;;;;;26.80;9.78;;;;;;;-8.59;87.89;100935.98;1815376;79;21192;-75
2020/12/07 02:04:16;;;;;;;21.05;8.13;;;;;;;-8.61;87.73;100934.81;1814856;79;20929;-75
2020/12/07 02:06:44;;;;;;;21.42;8.33;;;;;;;-8.63;87.44;100927.97;1814893;79;20908;-75
2020/12/07 02:09:13;;;;;;;21.62;8.63;;;;;;;-8.68;87.40;100925.31;1814870;79;21201;-76
2020/12/07 02:11:51;;;;;;;20.43;8.65;;;;;;;-8.68;87.83;100917.33;1873753;76;21895;-76
2020/12/07 02:14:18;;;;;;;25.50;9.53;;;;;;;-8.72;87.61;100921.80;1841789;78;21458;-76
2020/12/07 02:16:46;;;;;;;22.98;8.98;;;;;;;-8.75;87.50;100923.44;1841774;78;21190;-75
2020/12/07 02:19:14;;;;;;;24.57;9.18;;;;;;;-8.77;87.62;100927.59;1842499;78;21110;-74
2020/12/07 02:21:44;;;;;;;25.57;9.48;;;;;;;-8.77;87.59;100936.91;1841073;78;20984;-75
2020/12/07 02:24:16;;;;;;;23.07;9.80;;;;;;;-8.78;87.43;100937.06;1840112;78;21090;-74
2020/12/07 02:26:45;;;;;;;28.52;9.08;;;;;;;-8.80;87.58;100937.22;1840687;78;20972;-77
2020/12/07 02:29:12;;;;;;;24.47;8.60;;;;;;;-8.80;87.79;100934.56;1840560;77;21280;-76
2020/12/07 02:31:42;;;;;;;23.35;7.95;;;;;;;-8.81;87.57;100937.38;1807278;79;20940;-79
2020/12/07 02:34:09;;;;;;;22.00;8.23;;;;;;;-8.84;87.36;100939.02;1779434;79;20940;-76
2020/12/07 02:36:38;;;;;;;22.87;8.48;;;;;;;-8.89;87.34;100933.33;1808224;79;21055;-76
2020/12/07 02:39:08;;;;;;;22.15;8.38;;;;;;;-8.91;87.24;100934.81;1807756;79;20928;-75
2020/12/07 02:41:37;;;;;;;26.57;8.25;;;;;;;-8.92;87.33;100936.30;1807192;79;22128;-75
2020/12/07 02:44:05;;;;;;;22.42;8.20;;;;;;;-8.93;87.29;100942.12;1808548;79;21003;-75
2020/12/07 02:46:32;;;;;;;21.73;7.65;;;;;;;-8.92;87.61;100945.12;1808570;79;20877;-75
2020/12/07 02:49:00;;;;;;;23.55;8.05;;;;;;;-8.93;87.26;100942.12;1808488;78;20967;-75
2020/12/07 02:51:28;;;;;;;18.27;6.80;;;;;;;-8.97;86.93;100941.25;1808591;79;20920;-75
2020/12/07 02:53:57;;;;;;;25.12;7.62;;;;;;;-8.98;87.66;100939.58;1808639;79;21431;-74
2020/12/07 02:56:25;;;;;;;23.80;8.48;;;;;;;-9.00;87.06;100938.41;1808571;79;21003;-74
2020/12/07 02:58:54;;;;;;;23.87;8.40;;;;;;;-9.04;86.86;100939.21;1808604;79;20999;-74
2020/12/07 03:01:22;;;;;;;23.50;8.48;;;;;;;-9.09;86.85;100944.16;1807198;78;20924;-73
2020/12/07 03:03:49;;;;;;;29.57;9.48;;;;;;;-9.11;86.85;100939.98;1806900;78;21467;-73
2020/12/07 03:06:18;;;;;;;17.35;8.20;;;;;;;-9.12;86.86;100951.62;1807000;79;21422;-73
2020/12/07 03:08:47;;;;;;;19.57;7.70;;;;;;;-9.13;86.78;100947.28;1777697;79;21483;-75
2020/12/07 03:11:17;;;;;;;23.40;8.38;;;;;;;-9.15;86.90;100947.44;1782781;79;21528;-75
2020/12/07 03:13:45;;;;;;;24.98;9.58;;;;;;;-9.16;86.78;100951.58;1782052;80;20942;-74
2020/12/07 03:16:13;;;;;;;18.27;7.47;;;;;;;-9.18;86.79;100945.09;1781971;80;21608;-75
2020/12/07 03:18:40;;;;;;;23.50;8.53;;;;;;;-9.17;87.00;100944.59;1781970;80;21849;-75
2020/12/07 03:21:10;;;;;;;24.15;8.80;;;;;;;-9.14;86.86;100942.95;1781766;80;20957;-75
2020/12/07 03:23:39;;;;;;;29.25;7.90;;;;;;;-9.15;86.69;100938.63;1781420;80;21501;-75
2020/12/07 03:26:08;;;;;;;19.17;8.20;;;;;;;-9.15;86.77;100938.63;1776118;80;21510;-76
2020/12/07 03:28:37;;;;;;;23.62;8.23;;;;;;;-9.13;87.60;100933.48;1776170;80;20995;-76
2020/12/07 03:31:05;;;;;;;23.75;8.88;;;;;;;-9.11;87.11;100922.69;1777984;79;21379;-76
2020/12/07 03:33:33;;;;;;;20.17;7.72;;;;;;;-9.12;86.82;100925.02;1780015;80;21022;-76
2020/12/07 03:36:01;;;;;;;25.37;8.70;;;;;;;-9.14;86.92;100923.84;1780234;80;20948;-76
2020/12/07 03:38:30;;;;;;;19.32;7.60;;;;;;;-9.16;86.77;100929.80;1789668;78;20913;-76
2020/12/07 03:40:58;;;;;;;24.32;9.38;;;;;;;-9.19;86.50;100925.29;1810716;79;20933;-76
2020/12/07 03:43:33;;;;;;;18.10;7.70;;;;;;;-9.20;86.55;100924.95;1809649;79;21259;-74
2020/12/07 03:46:00;;;;;;;24.02;9.85;;;;;;;-9.22;86.60;100933.58;1810269;79;20969;-75
2020/12/07 03:48:29;;;;;;;25.72;9.15;;;;;;;-9.26;86.56;100929.58;1780317;79;20918;-74
2020/12/07 03:50:58;;;;;;;27.55;8.70;;;;;;;-9.29;86.33;100924.57;1807106;79;20940;-74
2020/12/07 03:53:33;;;;;;;25.48;8.68;;;;;;;-9.31;86.42;100936.70;1807838;79;20952;-75
2020/12/07 03:56:02;;;;;;;23.40;8.93;;;;;;;-9.32;86.97;100927.05;1806294;79;21314;-76
2020/12/07 03:58:30;;;;;;;26.45;8.75;;;;;;;-9.30;86.70;100935.70;1806355;79;20964;-75
2020/12/07 04:00:59;;;;;;;21.93;8.13;;;;;;;-9.30;86.50;100935.70;1797839;79;21490;-76
2020/12/07 04:03:28;;;;;;;25.52;8.83;;;;;;;-9.29;86.99;100928.06;1774480;80;21020;-75
2020/12/07 04:06:13;;;;;;;23.20;9.05;;;;;;;-9.28;86.52;100933.73;1774442;80;20921;-74
2020/12/07 04:08:39;;;;;;;24.95;8.35;;;;;;;-9.30;86.30;100929.55;1777279;79;21369;-73
2020/12/07 04:11:07;;;;;;;18.17;7.22;;;;;;;-9.33;86.25;100932.02;1810209;79;21569;-74
2020/12/07 04:13:34;;;;;;;22.25;8.60;;;;;;;-9.37;85.96;100935.48;1813662;79;20937;-74
2020/12/07 04:16:03;;;;;;;25.02;8.95;;;;;;;-9.39;85.88;100929.48;1813662;79;20928;-79
2020/12/07 04:18:31;;;;;;;15.80;6.00;;;;;;;-9.41;85.78;100932.78;1813657;79;20939;-75
2020/12/07 04:23:37;;;;;;;22.52;8.55;;;;;;;-9.40;85.54;100934.95;1888793;76;22179;-72
2020/12/07 04:26:04;;;;;;;16.02;5.03;;;;;;;-9.46;85.48;100935.06;1775442;80;20879;-73
2020/12/07 04:28:32;;;;;;;21.97;8.13;;;;;;;-9.49;85.51;100934.05;1849962;77;21535;-72
2020/12/07 04:31:00;;;;;;;20.35;7.45;;;;;;;-9.51;85.49;100936.02;1824661;77;21057;-76
2020/12/07 04:33:27;;;;;;;19.77;8.18;;;;;;;-9.51;85.48;100930.70;1816759;79;21571;-73
2020/12/07 04:35:56;;;;;;;21.30;7.08;;;;;;;-9.52;85.68;100931.69;1816757;79;20942;-73
2020/12/07 04:38:24;;;;;;;23.10;7.20;;;;;;;-9.51;86.01;100933.36;1816667;79;20926;-73
2020/12/07 04:40:52;;;;;;;21.40;7.47;;;;;;;-9.51;85.77;100932.03;1810725;79;21355;-74
2020/12/07 04:43:20;;;;;;;24.07;8.35;;;;;;;-9.54;85.54;100932.33;1810649;79;21521;-74
2020/12/07 04:45:47;;;;;;;23.83;9.03;;;;;;;-9.56;85.70;100927.66;1809481;79;21612;-74
2020/12/07 04:48:16;;;;;;;20.37;7.12;;;;;;;-9.57;85.54;100919.84;1810587;79;21045;-75
2020/12/07 04:50:43;;;;;;;21.00;7.28;;;;;;;-9.59;85.33;100916.50;1781659;79;21124;-76
2020/12/07 04:53:11;;;;;;;20.90;7.25;;;;;;;-9.63;85.06;100915.13;1755478;79;21464;-76
2020/12/07 04:55:38;;;;;;;20.85;8.23;;;;;;;-9.66;85.24;100913.61;1810577;79;20931;-76
2020/12/07 04:58:05;;;;;;;26.65;8.40;;;;;;;-9.69;85.12;100908.59;1810661;79;21458;-75
2020/12/07 05:00:33;;;;;;;21.48;7.45;;;;;;;-9.72;85.11;100908.41;1780250;79;20959;-74
2020/12/07 05:03:01;;;;;;;21.02;8.20;;;;;;;-9.74;85.54;100909.05;1781655;79;20923;-74
2020/12/07 05:05:28;;;;;;;22.48;8.60;;;;;;;-9.74;85.40;100916.19;1810691;79;21394;-74
2020/12/07 05:07:56;;;;;;;19.07;8.63;;;;;;;-9.74;85.31;100913.53;1810569;79;20919;-74
2020/12/07 05:13:56;;;;;;;24.57;9.25;;;;;;;-9.74;85.15;100904.23;1873747;75;22369;-74
2020/12/07 05:15:43;;;;;;;21.77;7.65;;;;;;;-9.80;85.08;100911.47;1810599;78;21004;-74
2020/12/07 05:18:12;;;;;;;23.38;8.58;;;;;;;-9.80;85.22;100910.14;1841687;78;21353;-76
2020/12/07 05:20:39;;;;;;;27.25;8.33;;;;;;;-9.79;85.49;100918.46;1841659;78;20940;-79
2020/12/07 05:23:07;;;;;;;23.70;8.18;;;;;;;-9.80;85.13;100922.11;1841622;77;20972;-77
2020/12/07 05:25:34;;;;;;;24.47;7.62;;;;;;;-9.83;85.02;100917.12;1841740;77;20932;-76
2020/12/07 05:28:03;;;;;;;22.40;8.40;;;;;;;-9.84;85.30;100916.29;1841707;78;20935;-76
2020/12/07 05:30:39;;;;;;;22.02;7.42;;;;;;;-9.81;85.88;100913.79;1823649;78;21765;-80
2020/12/07 05:33:01;;;;;;;20.02;7.50;;;;;;;-9.82;85.28;100904.98;1808076;79;20936;-76
2020/12/07 05:35:29;;;;;;;25.65;7.70;;;;;;;-9.83;85.10;100913.13;1779694;79;20928;-78
2020/12/07 05:38:04;;;;;;;19.85;7.37;;;;;;;-9.85;85.12;100913.78;1808616;79;21038;-75
2020/12/07 05:40:31;;;;;;;23.25;8.25;;;;;;;-9.89;84.85;100916.39;1808650;79;21063;-75
2020/12/07 05:42:59;;;;;;;26.45;8.73;;;;;;;-9.91;84.96;100931.16;1808723;79;22301;-75
2020/12/07 05:45:27;;;;;;;22.17;7.83;;;;;;;-9.89;85.20;100932.34;1808632;79;20981;-76
2020/12/07 05:47:55;;;;;;;28.12;9.85;;;;;;;-9.89;85.01;100922.55;1808592;79;21019;-78
2020/12/07 05:50:22;;;;;;;47.45;13.10;;;;;;;-9.90;84.96;100926.19;1779550;79;20932;-75
2020/12/07 05:52:54;;;;;;;43.40;12.98;;;;;;;-9.90;84.92;100925.35;1808579;79;20932;-75
2020/12/07 05:55:22;;;;;;;32.55;10.23;;;;;;;-9.90;85.15;100924.02;1808794;79;21197;-77
2020/12/07 05:58:02;;;;;;;19.12;6.20;;;;;;;-9.90;85.07;100928.01;1807789;79;20933;-74
2020/12/07 06:00:32;;;;;;;18.20;7.55;;;;;;;-9.91;84.69;100928.50;1806915;79;20936;-75
2020/12/07 06:03:03;;;;;;;13.50;6.22;;;;;;;-9.91;84.69;100927.66;1808316;79;20936;-77
2020/12/07 06:05:31;;;;;;;20.27;7.62;;;;;;;-9.94;84.71;100928.80;1808834;78;21067;-79
2020/12/07 06:10:58;;;;;;;23.40;8.23;;;;;;;-9.89;84.97;100919.89;1869396;76;22699;-79
2020/12/07 06:13:27;;;;;;;20.72;8.08;;;;;;;-9.91;84.87;100922.35;1816732;78;20921;-74
2020/12/07 06:15:55;;;;;;;18.50;7.28;;;;;;;-9.89;84.96;100920.38;1788148;79;21200;-72
2020/12/07 06:18:33;;;;;;;21.80;9.25;;;;;;;-9.84;85.07;100923.42;1829760;77;20993;-80
2020/12/07 06:21:11;;;;;;;23.22;7.92;;;;;;;-9.81;84.96;100922.59;1850004;77;20970;-78
2020/12/07 06:23:41;;;;;;;25.00;9.05;;;;;;;-9.77;84.70;100925.79;1819919;77;21037;-77
2020/12/07 06:26:12;;;;;;;22.87;8.73;;;;;;;-9.75;84.59;100923.81;1849991;77;20918;-75
2020/12/07 06:28:42;;;;;;;23.38;9.05;;;;;;;-9.70;85.17;100924.20;1849931;77;21379;-75
2020/12/07 06:31:15;;;;;;;22.77;8.60;;;;;;;-9.65;84.92;100924.58;1823033;77;20926;-71
2020/12/07 06:33:50;;;;;;;21.97;7.87;;;;;;;-9.61;84.49;100928.61;1775424;80;21011;-72
2020/12/07 06:36:35;;;;;;;18.10;7.50;;;;;;;-9.54;84.65;100931.00;1775475;80;21153;-73
2020/12/07 06:39:08;;;;;;;20.20;7.67;;;;;;;-9.43;83.94;100917.48;1775417;80;20980;-70
2020/12/07 06:41:44;;;;;;;24.52;8.18;;;;;;;-9.30;83.55;100917.09;1775401;80;21424;-73
2020/12/07 06:44:18;;;;;;;29.72;8.60;;;;;;;-9.07;83.70;100928.87;1774524;80;21606;-72
2020/12/07 06:47:13;;;;;;;28.10;8.48;;;;;;;-8.77;83.20;100923.59;1814953;79;20911;-77
2020/12/07 06:52:26;;;;;;;23.95;8.15;;;;;;;-8.16;80.58;100913.19;1910063;74;21853;-75
2020/12/07 06:55:10;;;;;;;21.90;9.25;;;;;;;-7.97;79.20;100908.55;1849990;77;20987;-76
2020/12/07 06:57:43;;;;;;;19.85;7.03;;;;;;;-7.85;77.77;100918.75;1850075;77;21317;-75
2020/12/07 07:00:19;;;;;;;27.47;7.53;;;;;;;-7.86;76.80;100921.08;1850365;77;21589;-76
2020/12/07 07:02:51;;;;;;;18.10;7.15;;;;;;;-7.92;77.15;100923.55;1849212;77;20924;-76
2020/12/07 07:05:20;;;;;;;19.67;7.40;;;;;;;-7.93;77.35;100917.39;1850132;77;20926;-76
2020/12/07 07:07:48;;;;;;;24.43;8.18;;;;;;;-7.82;77.59;100916.25;1850402;77;21064;-75
2020/12/07 07:10:18;;;;;;;25.17;7.42;;;;;;;-7.72;77.61;100921.77;1850214;77;20917;-76
2020/12/07 07:12:46;;;;;;;19.20;8.38;;;;;;;-7.65;76.76;100915.29;1839481;77;20895;-76
2020/12/07 07:15:14;;;;;;;21.12;8.03;;;;;;;-7.51;76.95;100915.14;1816702;78;21537;-76
2020/12/07 07:17:44;;;;;;;21.85;7.47;;;;;;;-7.29;76.03;100917.12;1816515;79;20978;-76
2020/12/07 07:20:13;;;;;;;29.57;8.50;;;;;;;-7.12;75.46;100916.13;1816627;79;20938;-76
2020/12/07 07:22:47;;;;;;;23.00;8.88;;;;;;;-6.91;74.65;100912.91;1816740;79;22208;-78
2020/12/07 07:30:26;;;;;;;20.52;8.00;;;;;;;-6.50;72.07;100912.33;1833189;77;21546;-76
2020/12/07 07:32:55;;;;;;;24.85;9.38;;;;;;;-6.38;71.61;100913.62;1850536;77;20956;-81
2020/12/07 07:35:29;;;;;;;20.50;8.58;;;;;;;-6.21;71.70;100914.87;1807700;79;21511;-82
2020/12/07 07:37:57;;;;;;;20.00;7.60;;;;;;;-6.06;70.43;100905.94;1774634;81;20952;-87
2020/12/07 07:40:28;;;;;;;24.72;8.95;;;;;;;-6.03;69.81;100904.26;1776240;80;20924;-83
2020/12/07 07:43:02;;;;;;;26.42;8.15;;;;;;;-5.97;69.88;100908.58;1797738;78;21615;-82
2020/12/07 07:48:20;;;;;;;16.45;6.05;;;;;;;-5.67;69.01;100906.33;1858618;75;22549;-73
2020/12/07 07:54:11;;;;;;;19.67;8.35;;;;;;;-5.71;69.19;100909.03;1841687;78;21635;-78
2020/12/07 07:59:51;;;;;;;19.77;6.70;;;;;;;-5.34;68.39;100910.95;1841758;78;21007;-83
2020/12/07 08:18:18;;;;;;;31.80;10.63;;;;;;;-4.31;65.30;100912.42;1890089;76;22427;-79
2020/12/07 08:20:58;;;;;;;22.17;9.18;;;;;;;-4.30;64.51;100907.38;1860836;77;20951;-81
2020/12/07 08:23:30;;;;;;;27.85;9.48;;;;;;;-4.30;63.66;100903.88;1860928;77;21573;-75
2020/12/07 08:25:59;;;;;;;32.98;10.35;;;;;;;-4.32;64.16;100900.86;1861104;77;21003;-79
2020/12/07 08:28:40;;;;;;;32.75;11.30;;;;;;;-4.48;63.90;100902.90;1861070;77;21572;-76
2020/12/07 08:31:14;;;;;;;26.02;8.63;;;;;;;-4.59;65.75;100897.48;1804951;77;20978;-78
2020/12/07 08:34:15;;;;;;;33.78;11.00;;;;;;;-4.60;65.48;100899.02;1793169;80;21148;-76
2020/12/07 08:36:45;;;;;;;19.57;7.95;;;;;;;-4.50;65.90;100894.21;1825487;78;21810;-89
2020/12/07 08:39:13;;;;;;;25.72;9.20;;;;;;;-4.18;65.31;100886.30;1827454;78;21022;-77
2020/12/07 08:41:40;;;;;;;22.80;8.25;;;;;;;-3.95;63.66;100891.50;1827290;78;21458;-75
2020/12/07 08:44:09;;;;;;;25.95;9.43;;;;;;;-3.73;64.06;100887.32;1826888;78;20956;-76
2020/12/07 08:46:39;;;;;;;33.08;12.25;;;;;;;-3.47;62.81;100880.06;1825974;78;20939;-73
2020/12/07 08:49:07;;;;;;;25.55;9.05;;;;;;;-3.30;62.16;100885.97;1827373;78;22350;-80
2020/12/07 08:51:36;;;;;;;41.15;12.75;;;;;;;-3.13;60.63;100878.48;1827119;78;20931;-82
2020/12/07 08:54:05;;;;;;;19.42;7.20;;;;;;;-3.15;61.56;100879.18;1827704;78;20923;-81
2020/12/07 08:56:32;;;;;;;24.12;8.30;;;;;;;-3.18;59.52;100870.17;1827449;78;20923;-80
2020/12/07 08:59:00;;;;;;;22.70;8.98;;;;;;;-3.27;59.95;100879.38;1827514;78;20994;-82
2020/12/07 09:01:28;;;;;;;25.68;9.18;;;;;;;-3.28;60.50;100864.30;1826749;78;21339;-81
2020/12/07 09:03:56;;;;;;;29.92;9.98;;;;;;;-3.19;60.42;100860.45;1794311;80;21187;-81
2020/12/07 09:06:23;;;;;;;19.70;7.92;;;;;;;-3.05;59.67;100857.67;1793460;80;21340;-79
2020/12/07 09:08:51;;;;;;;26.57;8.20;;;;;;;-3.03;58.97;100863.69;1793904;80;20939;-81
2020/12/07 09:11:20;;;;;;;30.02;9.80;;;;;;;-3.07;59.71;100848.15;1794855;80;20991;-82
2020/12/07 09:13:48;;;;;;;32.00;10.53;;;;;;;-2.86;59.78;100843.20;1794571;80;21361;-83
2020/12/07 09:16:15;;;;;;;17.15;7.28;;;;;;;-2.63;60.00;100836.22;1826114;78;21153;-83
2020/12/07 09:18:43;;;;;;;19.70;8.13;;;;;;;-2.51;58.67;100831.95;1792602;80;21041;-83
2020/12/07 09:21:12;;;;;;;19.52;8.18;;;;;;;-2.54;58.90;100820.25;1759515;81;20962;-82
2020/12/07 09:23:40;;;;;;;20.27;7.37;;;;;;;-2.52;58.06;100828.95;1792370;80;21465;-83
2020/12/07 09:26:08;;;;;;;18.80;8.08;;;;;;;-2.49;58.05;100818.62;1792377;80;21149;-82
2020/12/07 09:28:36;;;;;;;16.20;6.97;;;;;;;-2.33;58.51;100820.14;1776207;80;21607;-82
2020/12/07 09:31:04;;;;;;;18.70;7.45;;;;;;;-2.05;57.48;100809.25;1789534;79;21005;-81
2020/12/07 09:33:36;;;;;;;23.40;9.70;;;;;;;-1.86;56.67;100807.13;1783011;80;21464;-80
2020/12/07 09:36:06;;;;;;;22.22;9.98;;;;;;;-1.79;56.69;100803.94;1793681;80;20933;-83
2020/12/07 09:38:34;;;;;;;21.90;8.25;;;;;;;-1.76;55.81;100799.48;1793585;80;21455;-80
2020/12/07 09:41:02;;;;;;;19.42;9.08;;;;;;;-1.64;56.95;100799.69;1793997;80;20937;-82
2020/12/07 09:43:29;;;;;;;21.87;10.20;;;;;;;-1.46;55.13;100806.64;1793540;80;21543;-75
2020/12/07 09:45:57;;;;;;;24.55;7.95;;;;;;;-1.49;55.45;100801.67;1793101;80;21221;-76
2020/12/07 09:48:24;;;;;;;24.63;8.98;;;;;;;-1.53;54.32;100796.38;1792811;80;21468;-77
2020/12/07 09:50:52;;;;;;;24.50;9.85;;;;;;;-1.51;54.55;100801.56;1792356;80;21516;-74
2020/12/07 09:53:19;;;;;;;19.60;7.87;;;;;;;-1.55;55.66;100799.80;1777634;80;21143;-75
2020/12/07 09:55:47;;;;;;;20.23;8.00;;;;;;;-1.64;55.79;100801.55;1777073;80;21610;-80
2020/12/07 09:58:15;;;;;;;20.60;8.35;;;;;;;-1.62;55.00;100798.13;1771488;81;20942;-80
2020/12/07 10:00:42;;;;;;;24.00;6.65;;;;;;;-1.51;56.03;100798.87;1775787;80;20970;-79
2020/12/07 10:03:10;;;;;;;28.83;9.40;;;;;;;-1.36;53.15;100796.28;1778818;80;21232;-81
2020/12/07 10:05:38;;;;;;;30.52;9.85;;;;;;;-1.32;53.29;100801.26;1773098;80;21013;-78
2020/12/07 10:08:06;;;;;;;20.12;8.88;;;;;;;-1.32;53.89;100800.74;1780274;79;21052;-80
2020/12/07 10:10:33;;;;;;;24.75;10.45;;;;;;;-1.10;55.22;100791.89;1775320;80;21144;-75
2020/12/07 10:13:03;;;;;;;21.20;8.18;;;;;;;-0.92;53.90;100778.59;1779560;80;21126;-72
2020/12/07 10:15:31;;;;;;;17.15;8.05;;;;;;;-0.73;54.36;100776.37;1782642;79;21300;-74
2020/12/07 10:17:59;;;;;;;19.20;7.85;;;;;;;-0.69;52.16;100770.04;1761726;81;21136;-73
2020/12/07 10:20:26;;;;;;;18.73;7.80;;;;;;;-0.85;52.63;100771.84;1779513;79;21021;-73
2020/12/07 10:22:54;;;;;;;20.88;8.60;;;;;;;-0.90;53.55;100764.39;1788824;79;21587;-75
2020/12/07 10:25:21;;;;;;;20.90;8.43;;;;;;;-0.77;52.61;100763.01;1789594;79;20886;-75
2020/12/07 10:27:49;;;;;;;23.05;8.95;;;;;;;-0.88;52.88;100767.70;1792629;79;21091;-73
2020/12/07 10:30:16;;;;;;;17.27;7.05;;;;;;;-0.80;54.02;100769.34;1793353;79;21227;-73
2020/12/07 10:32:44;;;;;;;28.42;11.00;;;;;;;-0.69;52.79;100766.83;1804842;79;20919;-73
2020/12/07 10:35:11;;;;;;;23.15;8.95;;;;;;;-0.61;52.85;100757.67;1797259;79;20961;-76
2020/12/07 10:37:39;;;;;;;23.07;8.83;;;;;;;-0.52;53.18;100738.83;1754360;81;20973;-76
2020/12/07 10:40:06;;;;;;;24.32;8.83;;;;;;;-0.53;53.00;100742.56;1768291;79;21660;-78
2020/12/07 10:42:34;;;;;;;27.13;10.08;;;;;;;-0.52;52.27;100736.65;1784648;79;21056;-78
2020/12/07 10:45:02;;;;;;;27.70;10.88;;;;;;;-0.58;52.96;100736.19;1786294;79;20930;-75
2020/12/07 10:47:29;;;;;;;30.10;11.63;;;;;;;-0.60;53.85;100735.05;1799143;79;20981;-74
2020/12/07 10:49:57;;;;;;;24.30;8.83;;;;;;;-0.43;53.36;100730.80;1812747;79;21034;-75
2020/12/07 10:52:24;;;;;;;23.10;9.43;;;;;;;-0.25;52.81;100726.04;1804614;79;21359;-73
2020/12/07 10:54:52;;;;;;;15.80;7.90;;;;;;;-0.17;52.22;100718.21;1772089;79;20957;-74
2020/12/07 10:57:19;;;;;;;16.27;6.67;;;;;;;-0.22;51.03;100720.73;1799069;79;21096;-74
2020/12/07 10:59:47;;;;;;;24.23;9.18;;;;;;;-0.42;50.99;100705.47;1799083;79;21008;-74
2020/12/07 11:02:14;;;;;;;23.85;9.25;;;;;;;-0.48;51.73;100696.89;1766014;81;21488;-74
2020/12/07 11:04:42;;;;;;;20.68;8.13;;;;;;;-0.40;52.11;100703.91;1799102;79;21340;-74
2020/12/07 11:07:13;;;;;;;26.23;10.38;;;;;;;-0.31;51.03;100707.19;1766007;81;21587;-74
2020/12/07 11:09:41;;;;;;;19.43;6.47;;;;;;;-0.22;51.30;100705.89;1799381;79;20919;-75
2020/12/07 11:12:14;;;;;;;21.12;10.48;;;;;;;-0.27;49.77;100697.09;1767589;81;20941;-74
2020/12/07 11:14:41;;;;;;;21.68;9.23;;;;;;;-0.33;51.59;100697.95;1799316;79;20894;-74
2020/12/07 11:17:08;;;;;;;27.70;11.25;;;;;;;-0.25;51.53;100694.18;1796922;79;21447;-75
2020/12/07 11:19:36;;;;;;;22.85;9.25;;;;;;;-0.02;51.95;100692.58;1785745;80;21027;-76
2020/12/07 11:22:04;;;;;;;16.35;5.83;;;;;;;0.26;50.93;100689.42;1785813;80;21475;-76
2020/12/07 11:24:32;;;;;;;19.35;7.67;;;;;;;0.28;49.06;100680.58;1785811;80;21069;-76
2020/12/07 11:26:59;;;;;;;28.52;8.28;;;;;;;0.17;48.79;100679.11;1785713;80;21008;-75
2020/12/07 11:29:27;;;;;;;14.35;6.47;;;;;;;0.12;49.62;100674.37;1785694;80;21375;-75
2020/12/07 11:31:55;;;;;;;19.55;7.75;;;;;;;0.07;49.24;100674.73;1785615;80;20901;-75
2020/12/07 11:34:22;;;;;;;22.42;8.63;;;;;;;-0.03;50.65;100684.17;1785714;80;20999;-74
2020/12/07 11:36:50;;;;;;;20.70;7.40;;;;;;;-0.04;50.84;100679.81;1785688;80;21158;-75
2020/12/07 11:39:31;;;;;;;17.23;6.92;;;;;;;-0.06;50.59;100675.16;1785707;80;21089;-75
2020/12/07 11:44:18;;;;;;;15.63;6.90;;;;;;;0.28;49.46;100677.87;1785662;80;21019;-77
2020/12/07 11:46:53;;;;;;;17.57;7.72;;;;;;;0.30;49.57;100674.95;1785771;80;21145;-77
2020/12/07 11:49:18;;;;;;;18.75;7.40;;;;;;;0.34;49.61;100673.47;1785615;80;21576;-77
2020/12/07 11:51:45;;;;;;;14.43;6.72;;;;;;;0.45;49.68;100680.02;1785661;80;20892;-77
2020/12/07 11:54:13;;;;;;;15.58;6.70;;;;;;;0.29;49.96;100670.60;1785730;80;21215;-77
2020/12/07 11:56:40;;;;;;;21.55;9.40;;;;;;;0.17;51.16;100672.36;1785610;80;21007;-76
2020/12/07 11:59:09;;;;;;;18.00;7.53;;;;;;;0.11;50.57;100675.42;1785691;80;21114;-76
2020/12/07 12:01:37;;;;;;;15.80;6.40;;;;;;;0.05;50.78;100683.56;1785701;80;20987;-78
2020/12/07 12:04:05;;;;;;;23.12;8.73;;;;;;;-0.16;50.78;100674.81;1759426;80;21046;-78
2020/12/07 12:06:35;;;;;;;23.73;9.45;;;;;;;-0.28;52.55;100671.67;1785717;80;21365;-77
2020/12/07 12:09:09;;;;;;;27.85;10.53;;;;;;;-0.34;52.32;100676.06;1785760;80;21098;-77